createdAt,value
2019-02-17T00:00:40.617Z,6.10
2019-02-17T00:03:06.811Z,5.80
2019-02-17T00:05:32.926Z,5.00
2019-02-17T00:07:59.116Z,6.03
2019-02-17T00:10:25.225Z,6.22
2019-02-17T00:12:51.676Z,6.70
2019-02-17T00:15:17.860Z,4.25
2019-02-17T00:17:44.030Z,8.20
2019-02-17T00:20:10.219Z,5.55
2019-02-17T00:22:36.310Z,7.10
2019-02-17T00:25:03.419Z,6.20
2019-02-17T00:27:30.280Z,5.60
2019-02-17T00:29:56.605Z,6.47
2019-02-17T00:32:22.725Z,5.33
2019-02-17T00:34:48.920Z,5.87
2019-02-17T00:37:15.050Z,7.03
2019-02-17T00:39:41.216Z,9.03
2019-02-17T00:42:07.389Z,8.60
2019-02-17T00:44:33.549Z,9.03
2019-02-17T00:46:59.991Z,11.20
2019-02-17T00:49:26.276Z,9.88
2019-02-17T00:51:52.455Z,7.97
2019-02-17T00:54:18.598Z,8.78
2019-02-17T00:56:44.849Z,8.95
2019-02-17T00:59:11.084Z,8.53
2019-02-17T01:01:37.337Z,8.63
2019-02-17T01:04:03.466Z,9.70
2019-02-17T01:06:29.708Z,9.75
2019-02-17T01:08:56.112Z,8.35
2019-02-17T01:11:22.263Z,7.53
2019-02-17T01:13:48.479Z,8.63
2019-02-17T01:16:14.579Z,9.35
2019-02-17T01:18:40.787Z,13.35
2019-02-17T01:21:06.892Z,8.05
2019-02-17T01:23:33.054Z,10.15
2019-02-17T01:25:59.138Z,7.65
2019-02-17T01:28:25.343Z,10.15
2019-02-17T01:30:51.449Z,12.45
2019-02-17T01:33:17.877Z,8.93
2019-02-17T01:35:44.082Z,8.43
2019-02-17T01:38:10.316Z,7.80
2019-02-17T01:40:36.608Z,9.28
2019-02-17T01:43:02.792Z,8.05
2019-02-17T01:45:29.186Z,8.83
2019-02-17T01:47:55.374Z,10.18
2019-02-17T01:50:21.535Z,9.23
2019-02-17T01:52:47.685Z,8.28
2019-02-17T01:55:14.115Z,7.75
2019-02-17T01:57:40.540Z,9.45
2019-02-17T02:00:10.670Z,11.08
2019-02-17T02:02:36.819Z,7.05
2019-02-17T02:05:04.689Z,7.70
2019-02-17T02:07:30.814Z,6.33
2019-02-17T02:09:57.003Z,10.03
2019-02-17T02:12:23.168Z,10.32
2019-02-17T02:14:49.379Z,9.00
2019-02-17T02:17:15.543Z,9.13
2019-02-17T02:19:41.808Z,8.10
2019-02-17T02:22:08.002Z,12.98
2019-02-17T02:24:34.082Z,13.53
2019-02-17T02:27:00.303Z,9.18
2019-02-17T02:29:29.439Z,9.80
2019-02-17T02:31:55.691Z,8.25
2019-02-17T02:34:21.885Z,8.45
2019-02-17T02:36:48.159Z,8.75
2019-02-17T02:39:14.408Z,8.53
2019-02-17T02:41:40.618Z,8.40
2019-02-17T02:44:06.772Z,9.88
2019-02-17T02:46:32.959Z,10.30
2019-02-17T02:48:59.172Z,9.68
2019-02-17T02:51:25.399Z,9.95
2019-02-17T02:53:51.506Z,9.78
2019-02-17T02:56:18.841Z,9.05
2019-02-17T02:58:45.031Z,11.28
2019-02-17T03:01:11.790Z,8.98
2019-02-17T03:03:37.961Z,11.50
2019-02-17T03:06:06.026Z,10.15
2019-02-17T03:08:32.418Z,10.93
2019-02-17T03:10:58.602Z,10.32
2019-02-17T03:13:24.827Z,8.85
2019-02-17T03:15:50.946Z,11.57
2019-02-17T03:18:17.167Z,11.90
2019-02-17T03:20:43.356Z,8.43
2019-02-17T03:23:09.564Z,12.28
2019-02-17T03:25:35.669Z,12.07
2019-02-17T03:28:01.885Z,10.75
2019-02-17T03:30:28.022Z,11.63
2019-02-17T03:32:54.209Z,13.35
2019-02-17T03:35:20.299Z,10.53
2019-02-17T03:37:46.802Z,10.13
2019-02-17T03:40:12.917Z,11.55
2019-02-17T03:42:39.589Z,11.18
2019-02-17T03:45:08.168Z,11.50
2019-02-17T03:47:34.464Z,8.13
2019-02-17T03:50:00.797Z,9.08
2019-02-17T03:52:26.935Z,9.73
2019-02-17T03:54:53.076Z,8.48
2019-02-17T03:57:19.322Z,8.35
2019-02-17T03:59:45.472Z,8.80
2019-02-17T04:02:11.618Z,10.23
2019-02-17T04:04:37.877Z,9.28
2019-02-17T04:07:04.122Z,9.33
2019-02-17T04:09:30.299Z,12.68
2019-02-17T04:11:56.760Z,10.15
2019-02-17T04:14:22.914Z,9.78
2019-02-17T04:16:49.113Z,9.75
2019-02-17T04:19:15.490Z,9.28
2019-02-17T04:21:41.646Z,11.18
2019-02-17T04:24:08.332Z,8.50
2019-02-17T04:26:34.486Z,8.88
2019-02-17T04:29:01.512Z,10.35
2019-02-17T04:31:27.719Z,9.85
2019-02-17T04:33:54.814Z,10.55
2019-02-17T04:36:21.166Z,10.98
2019-02-17T04:38:47.246Z,9.23
2019-02-17T04:41:13.831Z,10.70
2019-02-17T04:43:40.066Z,10.28
2019-02-17T04:46:06.258Z,10.25
2019-02-17T04:48:32.406Z,11.40
2019-02-17T04:50:58.597Z,11.28
2019-02-17T04:53:25.299Z,8.38
2019-02-17T04:55:51.533Z,8.75
2019-02-17T04:58:18.250Z,6.72
2019-02-17T05:00:44.596Z,7.85
2019-02-17T05:03:10.716Z,7.62
2019-02-17T05:05:37.757Z,6.28
2019-02-17T05:08:03.858Z,6.35
2019-02-17T05:10:30.048Z,8.80
2019-02-17T05:12:56.165Z,7.92
2019-02-17T05:15:22.375Z,6.78
2019-02-17T05:17:48.503Z,7.53
2019-02-17T05:20:14.694Z,7.08
2019-02-17T05:22:41.471Z,8.38
2019-02-17T05:25:07.872Z,7.00
2019-02-17T05:27:36.261Z,6.70
2019-02-17T05:30:05.175Z,5.92
2019-02-17T05:32:31.348Z,7.47
2019-02-17T05:34:59.041Z,7.08
2019-02-17T05:37:25.387Z,7.83
2019-02-17T05:39:51.883Z,9.10
2019-02-17T05:42:18.081Z,7.75
2019-02-17T05:44:44.229Z,8.08
2019-02-17T05:47:10.653Z,7.40
2019-02-17T05:49:36.787Z,8.75
2019-02-17T05:52:03.017Z,11.33
2019-02-17T05:54:29.117Z,10.25
2019-02-17T05:56:55.321Z,10.13
2019-02-17T05:59:21.539Z,8.63
2019-02-17T06:01:47.761Z,8.50
2019-02-17T06:04:14.048Z,10.03
2019-02-17T06:06:40.243Z,10.72
2019-02-17T06:09:06.339Z,9.90
2019-02-17T06:11:32.538Z,10.72
2019-02-17T06:13:58.696Z,10.35
2019-02-17T06:16:25.268Z,11.10
2019-02-17T06:18:51.427Z,13.72
2019-02-17T06:21:17.628Z,10.28
2019-02-17T06:23:43.828Z,12.65
2019-02-17T06:26:09.986Z,10.60
2019-02-17T06:28:36.142Z,11.80
2019-02-17T06:31:02.285Z,11.70
2019-02-17T06:33:28.437Z,13.03
2019-02-17T06:35:54.665Z,12.98
2019-02-17T06:38:20.831Z,10.72
2019-02-17T06:40:47.053Z,11.50
2019-02-17T06:43:14.489Z,9.45
2019-02-17T06:45:40.711Z,11.83
2019-02-17T06:48:07.681Z,12.35
2019-02-17T06:50:34.226Z,11.85
2019-02-17T06:53:00.515Z,9.40
2019-02-17T06:55:35.099Z,11.30
2019-02-17T06:58:01.386Z,9.40
2019-02-17T07:00:29.479Z,9.75
2019-02-17T07:02:56.285Z,12.18
2019-02-17T07:05:24.457Z,9.95
2019-02-17T07:07:51.365Z,10.18
2019-02-17T07:10:17.944Z,11.83
2019-02-17T07:12:44.159Z,11.33
2019-02-17T07:15:10.266Z,10.18
2019-02-17T07:17:36.645Z,11.80
2019-02-17T07:20:04.733Z,11.43
2019-02-17T07:22:31.604Z,12.13
2019-02-17T07:24:58.505Z,10.40
2019-02-17T07:27:24.657Z,10.03
2019-02-17T07:29:51.108Z,13.40
2019-02-17T07:32:17.242Z,11.18
2019-02-17T07:34:45.180Z,12.33
2019-02-17T07:37:11.335Z,11.12
2019-02-17T07:39:38.050Z,11.12
2019-02-17T07:42:04.216Z,10.93
2019-02-17T07:44:30.524Z,10.72
2019-02-17T07:46:59.057Z,10.25
2019-02-17T07:49:28.594Z,11.35
2019-02-17T07:51:54.731Z,9.08
2019-02-17T07:54:21.184Z,12.68
2019-02-17T07:56:48.483Z,7.85
2019-02-17T07:59:14.747Z,10.48
2019-02-17T08:01:45.370Z,10.30
2019-02-17T08:04:11.415Z,10.75
2019-02-17T08:06:37.644Z,10.32
2019-02-17T08:09:05.451Z,11.45
2019-02-17T08:11:32.012Z,11.25
2019-02-17T08:23:46.719Z,10.82
2019-02-17T08:26:14.657Z,8.85
2019-02-17T08:28:42.558Z,7.75
2019-02-17T08:31:09.906Z,8.13
2019-02-17T08:33:37.402Z,8.78
2019-02-17T08:36:03.579Z,9.00
2019-02-17T08:38:31.647Z,7.87
2019-02-17T08:40:57.862Z,6.80
2019-02-17T08:43:23.963Z,8.58
2019-02-17T08:45:50.219Z,7.08
2019-02-17T08:48:16.334Z,7.28
2019-02-17T08:50:42.547Z,6.33
2019-02-17T08:53:08.988Z,6.90
2019-02-17T08:55:37.910Z,9.58
2019-02-17T08:58:05.239Z,7.95
2019-02-17T09:00:31.902Z,7.83
2019-02-17T09:02:58.727Z,7.58
2019-02-17T09:05:26.133Z,6.00
2019-02-17T09:07:53.747Z,6.03
2019-02-17T09:10:19.969Z,9.10
2019-02-17T09:12:49.038Z,6.25
2019-02-17T09:15:15.250Z,7.67
2019-02-17T09:17:41.870Z,4.85
2019-02-17T09:20:09.597Z,6.33
2019-02-17T09:22:35.696Z,5.87
2019-02-17T09:25:02.630Z,7.47
2019-02-17T09:27:28.878Z,7.92
2019-02-17T09:29:55.124Z,6.00
2019-02-17T09:32:21.351Z,6.03
2019-02-17T09:34:47.527Z,5.95
2019-02-17T09:37:13.760Z,7.33
2019-02-17T09:39:39.909Z,6.20
2019-02-17T09:42:06.326Z,7.20
2019-02-17T09:44:32.506Z,4.28
2019-02-17T09:46:59.164Z,5.45
2019-02-17T09:49:25.324Z,4.95
2019-02-17T09:51:51.469Z,5.08
2019-02-17T09:54:17.652Z,7.55
2019-02-17T09:56:43.910Z,6.80
2019-02-17T09:59:11.151Z,4.45
2019-02-17T10:01:37.350Z,7.50
2019-02-17T10:04:03.654Z,11.38
2019-02-17T10:06:29.922Z,5.08
2019-02-17T10:08:56.122Z,6.53
2019-02-17T10:11:22.733Z,5.90
2019-02-17T10:13:48.895Z,4.65
2019-02-17T10:16:15.596Z,6.37
2019-02-17T10:18:41.695Z,5.20
2019-02-17T10:21:08.342Z,6.47
2019-02-17T10:23:34.524Z,6.62
2019-02-17T10:26:01.049Z,8.83
2019-02-17T10:28:27.225Z,5.62
2019-02-17T10:43:46.263Z,7.00
2019-02-17T10:46:12.540Z,5.72
2019-02-17T10:48:38.874Z,5.35
2019-02-17T10:51:05.060Z,6.05
2019-02-17T10:53:33.806Z,5.75
2019-02-17T10:56:00.552Z,6.90
2019-02-17T10:58:27.182Z,6.53
2019-02-17T11:00:53.403Z,6.50
2019-02-17T11:03:19.513Z,7.35
2019-02-17T11:05:46.203Z,7.65
2019-02-17T11:08:12.294Z,8.30
2019-02-17T11:10:39.305Z,6.92
2019-02-17T11:13:05.396Z,32.25
2019-02-17T11:15:31.577Z,7.47
2019-02-17T11:17:58.171Z,31.30
2019-02-17T11:20:24.371Z,6.22
2019-02-17T11:22:50.805Z,5.03
2019-02-17T11:25:18.106Z,9.63
2019-02-17T11:27:44.222Z,6.78
2019-02-17T11:30:16.432Z,6.50
2019-02-17T11:32:42.533Z,6.60
2019-02-17T11:35:08.719Z,8.28
2019-02-17T11:37:34.871Z,7.10
2019-02-17T11:40:01.061Z,8.05
2019-02-17T11:42:28.430Z,14.58
2019-02-17T11:44:55.030Z,7.67
2019-02-17T11:47:22.258Z,7.15
2019-02-17T11:49:48.348Z,6.62
2019-02-17T11:52:15.728Z,6.03
2019-02-17T11:54:42.325Z,5.40
2019-02-17T11:57:08.507Z,7.12
2019-02-17T11:59:34.631Z,8.05
2019-02-17T12:02:00.772Z,8.25
2019-02-17T12:04:26.906Z,7.08
2019-02-17T12:06:53.158Z,4.90
2019-02-17T12:09:19.342Z,5.35
2019-02-17T12:11:45.487Z,5.30
2019-02-17T12:14:11.643Z,7.35
2019-02-17T12:16:37.795Z,5.20
2019-02-17T12:19:03.908Z,6.65
2019-02-17T12:21:37.986Z,4.42
2019-02-17T12:24:11.848Z,4.30
2019-02-17T12:26:39.880Z,4.62
2019-02-17T12:29:08.073Z,13.55
2019-02-17T12:31:35.030Z,4.50
2019-02-17T12:34:01.199Z,4.08
2019-02-17T12:36:27.463Z,8.55
2019-02-17T12:38:53.541Z,8.15
2019-02-17T12:41:19.747Z,5.55
2019-02-17T12:43:45.943Z,5.53
2019-02-17T12:46:12.046Z,8.25
2019-02-17T12:48:39.789Z,9.70
2019-02-17T12:51:06.089Z,7.45
2019-02-17T12:53:32.274Z,5.22
2019-02-17T12:55:58.417Z,4.00
2019-02-17T12:58:29.902Z,6.10
2019-02-17T13:00:52.799Z,5.62
2019-02-17T13:03:28.026Z,4.67
2019-02-17T13:05:47.056Z,4.35
2019-02-17T13:08:13.172Z,4.05
2019-02-17T13:10:39.351Z,4.58
2019-02-17T13:13:05.569Z,4.22
2019-02-17T13:15:31.692Z,8.25
2019-02-17T13:17:57.892Z,7.50
2019-02-17T13:20:23.974Z,5.67
2019-02-17T13:22:50.294Z,5.15
2019-02-17T13:25:17.654Z,5.03
2019-02-17T13:27:44.614Z,6.47
2019-02-17T13:30:13.952Z,4.95
2019-02-17T13:35:06.395Z,6.65
2019-02-17T13:37:32.574Z,5.55
2019-02-17T13:39:58.675Z,4.25
2019-02-17T13:42:24.975Z,4.28
2019-02-17T13:44:51.058Z,4.47
2019-02-17T13:47:17.375Z,4.05
2019-02-17T13:49:43.488Z,3.08
2019-02-17T13:52:10.563Z,3.65
2019-02-17T13:54:36.755Z,4.03
2019-02-17T13:57:02.914Z,5.70
2019-02-17T13:59:29.122Z,3.98
2019-02-17T14:01:55.222Z,5.22
2019-02-17T14:04:21.445Z,4.35
2019-02-17T14:06:47.765Z,5.05
2019-02-17T14:09:14.133Z,7.22
2019-02-17T14:11:40.226Z,18.27
2019-02-17T14:14:06.427Z,9.10
2019-02-17T14:16:34.682Z,4.95
2019-02-17T14:19:01.207Z,5.75
2019-02-17T14:21:27.363Z,4.92
2019-02-17T14:23:53.932Z,4.87
2019-02-17T14:26:21.974Z,5.97
2019-02-17T14:28:48.487Z,5.17
2019-02-17T14:31:14.706Z,5.55
2019-02-17T14:33:41.265Z,5.30
2019-02-17T14:36:07.405Z,4.12
2019-02-17T14:38:33.581Z,4.33
2019-02-17T14:40:59.667Z,3.77
2019-02-17T14:43:25.834Z,3.92
2019-02-17T14:45:52.045Z,3.00
2019-02-17T14:48:18.842Z,4.25
2019-02-17T14:50:45.140Z,2.30
2019-02-17T14:53:11.522Z,2.58
2019-02-17T14:55:37.609Z,2.83
2019-02-17T14:58:05.666Z,2.05
2019-02-17T15:00:33.212Z,4.60
2019-02-17T15:03:00.221Z,3.90
2019-02-17T15:05:26.430Z,4.40
2019-02-17T15:07:52.661Z,3.15
2019-02-17T15:10:18.855Z,2.87
2019-02-17T15:12:45.055Z,3.80
2019-02-17T15:15:14.058Z,4.70
2019-02-17T15:17:40.290Z,3.37
2019-02-17T15:20:09.640Z,3.70
2019-02-17T15:22:35.785Z,4.05
2019-02-17T15:25:02.555Z,2.10
2019-02-17T15:27:28.715Z,4.25
2019-02-17T15:29:54.943Z,2.10
2019-02-17T15:32:21.179Z,2.27
2019-02-17T15:34:50.543Z,2.85
2019-02-17T15:37:16.769Z,2.70
2019-02-17T15:39:43.065Z,3.42
2019-02-17T15:42:09.265Z,3.20
2019-02-17T15:44:35.371Z,4.87
2019-02-17T15:47:01.568Z,3.42
2019-02-17T15:49:27.743Z,5.00
2019-02-17T15:51:54.068Z,2.87
2019-02-17T15:54:20.184Z,4.45
2019-02-17T15:56:46.364Z,3.12
2019-02-17T15:59:15.597Z,3.02
2019-02-17T16:01:41.611Z,2.45
2019-02-17T16:04:07.845Z,2.77
2019-02-17T16:06:33.992Z,3.42
2019-02-17T16:09:00.238Z,3.75
2019-02-17T16:11:26.460Z,3.08
2019-02-17T16:13:52.685Z,4.25
2019-02-17T16:16:18.860Z,3.10
2019-02-17T16:18:45.018Z,2.42
2019-02-17T16:21:11.188Z,2.25
2019-02-17T16:23:37.516Z,2.42
2019-02-17T16:26:03.728Z,3.08
2019-02-17T16:28:31.010Z,1.80
2019-02-17T16:30:57.217Z,3.25
2019-02-17T16:33:24.196Z,4.12
2019-02-17T16:35:51.450Z,3.45
2019-02-17T16:38:17.658Z,3.42
2019-02-17T16:40:43.951Z,4.40
2019-02-17T16:43:10.184Z,2.52
2019-02-17T16:45:36.381Z,4.65
2019-02-17T16:48:02.541Z,3.70
2019-02-17T16:50:30.556Z,2.92
2019-02-17T16:52:56.720Z,2.60
2019-02-17T16:55:22.980Z,2.60
2019-02-17T16:57:49.109Z,2.33
2019-02-17T17:00:19.725Z,3.75
2019-02-17T17:02:45.945Z,3.02
2019-02-17T17:05:12.493Z,4.85
2019-02-17T17:07:39.310Z,3.27
2019-02-17T17:10:05.554Z,4.80
2019-02-17T17:12:31.963Z,5.05
2019-02-17T17:14:58.193Z,7.97
2019-02-17T17:17:25.430Z,8.65
2019-02-17T17:19:51.543Z,6.72
2019-02-17T17:22:17.784Z,4.15
2019-02-17T17:24:43.902Z,5.60
2019-02-17T17:27:10.041Z,5.40
2019-02-17T17:29:36.182Z,5.05
2019-02-17T17:32:02.371Z,4.30
2019-02-17T17:34:28.520Z,5.80
2019-02-17T17:36:54.836Z,5.78
2019-02-17T17:39:21.035Z,5.42
2019-02-17T17:41:47.292Z,6.40
2019-02-17T17:44:14.535Z,7.92
2019-02-17T17:46:40.700Z,5.60
2019-02-17T17:49:06.859Z,5.22
2019-02-17T17:51:32.998Z,5.65
2019-02-17T17:53:59.294Z,5.35
2019-02-17T17:56:25.440Z,5.65
2019-02-17T17:58:51.624Z,6.70
2019-02-17T18:01:17.808Z,7.67
2019-02-17T18:04:12.208Z,7.03
2019-02-17T18:06:38.497Z,73.90
2019-02-17T18:09:05.122Z,107.90
2019-02-17T18:11:31.352Z,87.08
2019-02-17T18:13:57.557Z,58.05
2019-02-17T18:16:23.758Z,38.63
2019-02-17T18:18:49.926Z,15.55
2019-02-17T18:21:16.467Z,12.35
2019-02-17T18:23:42.624Z,12.47
2019-02-17T18:26:08.943Z,11.20
2019-02-17T18:28:35.075Z,7.80
2019-02-17T18:31:01.216Z,12.18
2019-02-17T18:33:27.538Z,9.58
2019-02-17T18:35:53.672Z,9.98
2019-02-17T18:38:19.842Z,9.25
2019-02-17T18:40:47.905Z,9.60
2019-02-17T18:43:14.349Z,8.70
2019-02-17T18:45:40.517Z,9.80
2019-02-17T18:48:06.777Z,11.33
2019-02-17T18:50:32.854Z,11.30
2019-02-17T18:53:01.507Z,12.50
2019-02-17T18:55:27.590Z,11.28
2019-02-17T18:57:53.759Z,10.82
2019-02-17T19:00:24.966Z,9.53
2019-02-17T19:02:51.124Z,10.63
2019-02-17T19:05:17.226Z,19.52
2019-02-17T19:07:43.494Z,14.87
2019-02-17T19:10:11.351Z,11.55
2019-02-17T19:12:37.554Z,11.53
2019-02-17T19:15:16.745Z,15.43
2019-02-17T19:17:42.972Z,12.85
2019-02-17T19:20:11.798Z,25.12
2019-02-17T19:22:38.019Z,11.25
2019-02-17T19:25:06.615Z,12.88
2019-02-17T19:27:32.834Z,13.72
2019-02-17T19:29:58.934Z,12.80
2019-02-17T19:32:25.190Z,13.48
2019-02-17T19:34:51.393Z,12.30
2019-02-17T19:37:19.391Z,11.57
2019-02-17T19:39:45.641Z,11.12
2019-02-17T19:42:11.846Z,11.75
2019-02-17T19:44:38.952Z,13.08
2019-02-17T19:47:06.815Z,12.80
2019-02-17T19:49:33.811Z,12.07
2019-02-17T19:52:01.253Z,10.78
2019-02-17T19:54:27.357Z,13.70
2019-02-17T19:56:53.544Z,11.97
2019-02-17T19:59:21.611Z,10.80
2019-02-17T20:01:47.794Z,12.35
2019-02-17T20:04:15.810Z,10.32
2019-02-17T20:06:42.134Z,15.15
2019-02-17T20:09:15.361Z,10.75
2019-02-17T20:11:41.547Z,13.35
2019-02-17T20:14:07.781Z,11.22
2019-02-17T20:16:33.881Z,10.63
2019-02-17T20:19:00.048Z,10.70
2019-02-17T20:21:26.181Z,12.45
2019-02-17T20:23:53.787Z,8.78
2019-02-17T20:26:20.229Z,10.90
2019-02-17T20:28:47.291Z,10.65
2019-02-17T20:31:13.783Z,10.82
2019-02-17T20:33:40.900Z,12.70
2019-02-17T20:36:07.001Z,14.18
2019-02-17T20:38:33.209Z,11.30
2019-02-17T20:40:59.341Z,12.75
2019-02-17T20:43:25.481Z,11.78
2019-02-17T20:45:51.630Z,12.65
2019-02-17T20:48:17.787Z,11.50
2019-02-17T20:50:43.937Z,13.35
2019-02-17T20:53:11.050Z,12.28
2019-02-17T20:55:37.617Z,12.55
2019-02-17T20:58:03.966Z,11.93
2019-02-17T21:00:30.357Z,12.47
2019-02-17T21:02:56.615Z,11.83
2019-02-17T21:05:22.831Z,12.15
2019-02-17T21:07:48.914Z,11.35
2019-02-17T21:10:15.406Z,13.13
2019-02-17T21:12:41.606Z,14.03
2019-02-17T21:15:11.650Z,12.43
2019-02-17T21:17:39.841Z,11.20
2019-02-17T21:20:07.340Z,11.03
2019-02-17T21:22:33.932Z,10.45
2019-02-17T21:25:00.506Z,12.03
2019-02-17T21:27:27.584Z,13.48
2019-02-17T21:29:55.172Z,11.35
2019-02-17T21:32:21.375Z,13.13
2019-02-17T21:34:48.475Z,12.65
2019-02-17T21:37:14.668Z,11.57
2019-02-17T21:39:40.811Z,12.23
2019-02-17T21:42:07.792Z,10.18
2019-02-17T21:44:34.047Z,16.10
2019-02-17T21:47:00.899Z,11.18
2019-02-17T21:49:27.137Z,14.85
2019-02-17T21:51:53.323Z,12.13
2019-02-17T21:54:20.373Z,11.83
2019-02-17T21:56:46.718Z,12.35
2019-02-17T21:59:12.951Z,9.75
2019-02-17T22:01:39.237Z,10.72
2019-02-17T22:04:05.408Z,12.50
2019-02-17T22:06:33.795Z,11.18
2019-02-17T22:08:59.791Z,10.93
2019-02-17T22:11:25.931Z,9.73
2019-02-17T22:13:52.119Z,13.65
2019-02-17T22:16:20.239Z,11.20
2019-02-17T22:18:46.380Z,13.30
2019-02-17T22:21:12.517Z,10.82
2019-02-17T22:23:40.033Z,10.90
2019-02-17T22:26:06.212Z,11.05
2019-02-17T22:28:32.409Z,12.43
2019-02-17T22:30:58.503Z,11.22
2019-02-17T22:33:25.830Z,9.83
2019-02-17T22:35:52.035Z,12.35
2019-02-17T22:38:18.173Z,11.25
2019-02-17T22:40:44.313Z,13.35
2019-02-17T22:43:10.458Z,11.25
2019-02-17T22:45:36.598Z,10.85
2019-02-17T22:48:02.796Z,9.08
2019-02-17T22:50:28.919Z,10.30
2019-02-17T22:52:55.084Z,10.30
2019-02-17T22:55:21.198Z,10.88
2019-02-17T22:57:47.399Z,10.00
2019-02-17T23:00:20.305Z,10.90
2019-02-17T23:02:48.386Z,9.88
2019-02-17T23:05:14.485Z,8.40
2019-02-17T23:07:40.778Z,9.55
2019-02-17T23:10:08.159Z,9.08
2019-02-17T23:12:34.442Z,8.58
2019-02-17T23:15:00.579Z,9.38
2019-02-17T23:17:26.713Z,10.55
2019-02-17T23:19:52.924Z,8.98
2019-02-17T23:22:19.020Z,9.40
2019-02-17T23:24:45.319Z,9.95
2019-02-17T23:27:11.455Z,8.45
2019-02-17T23:29:37.643Z,10.50
2019-02-17T23:32:03.751Z,9.00
2019-02-17T23:34:29.963Z,10.13
2019-02-17T23:37:03.648Z,9.50
2019-02-17T23:39:24.247Z,8.53
2019-02-17T23:41:50.423Z,11.05
2019-02-17T23:44:16.497Z,11.30
2019-02-17T23:46:42.690Z,12.68
2019-02-17T23:49:08.783Z,8.25
2019-02-17T23:51:34.971Z,9.00
2019-02-17T23:54:01.112Z,8.68
2019-02-17T23:56:28.407Z,11.10
2019-02-17T23:58:54.496Z,9.30
